logo dgac
Martes 21 de Septiembre del 2021
Buscar por aerodromo o helipuerto
Ingrese nombre de aeródromo, localidad o designador OACI:
TAF: TAF SCAT 211019Z 2112/2212 34004KT 9999 OVC009 TX16/2118Z TN07/2210Z TEMPO 2112/2113 5000 -DZ BKN005 OVC010 BECMG 2113/2115 OVC015 BECMG 2116/2118 27010KT FEW020 BECMG 2200/2202 23004KT BKN025
TAF del 21/09/2021 a las 10:19 UTC
Para mayor información visite www.meteochile.cl
Período de validez: desde el 21 a las 12:00 UTC hasta el 22 a las 12:00 UTC
Viento: dirección 340 grados, velocidad 4 nudos
Visibilidad: 10 km o más
Nubes: Cubierto a 900 pies sobre el nivel del aeródromo
Temperatura máxima: 16ºC el 21 a las 18:00 UTC
Temperatura mínima: 7ºC el 22 a las 10:00 UTC
Se espera en forma temporal entre las 12:00 UTC del 21 y las 13:00 UTC del 21:
Visibilidad: 5000 metros
Débil LLovizna
Nubes: Nublado a 500 pies sobre el nivel del aeródromo
Nubes: Cubierto a 1000 pies sobre el nivel del aeródromo
Se espera un cambio entre las 13:00 UTC del 21 y las 15:00 UTC del 21, :
Nubes: Cubierto a 1500 pies sobre el nivel del aeródromo
Se espera un cambio entre las 16:00 UTC del 21 y las 18:00 UTC del 21, :
Viento: dirección 270 grados, velocidad 10 nudos
Nubes: Escasa nubosidad a 2000 pies sobre el nivel del aeródromo
Se espera un cambio entre las 00:00 UTC del 22 y las 02:00 UTC del 22, :
Viento: dirección 230 grados, velocidad 4 nudos
Nubes: Nublado a 2500 pies sobre el nivel del aeródromo